Main page
METAR-TAF:

METAR-TAF

Airports :

Seville Airport

Seville, Spain

latitude: 37-25N, longitude: 005-54W, elevation: 34 m

Current weather observation

The report was made 43 minutes ago, at 22:30 UTC
Wind 2 kt from variable directions
Temperature 16°C
Humidity 82%
Pressure 1023 hPa
Visibility 10 km or more
no clouds below 1500 m and no cumulonimbus

METAR: LEZL 282230Z VRB02KT CAVOK 16/13 Q1023 NOSIG

Time: 00:13 (23:13 UTC)

Forecast

The report was made 3 hours and 13 minutes ago, at 20:00 UTC
Forecast valid from 28 at 21 UTC to 29 at 21 UTC
Wind 3 kt from variable directions
Visibility 10 km or more
no clouds below 1500 m and no cumulonimbus
Becoming
from 29 at 06 UTC to 29 at 08 UTC
Wind 10 kt from the Northeast

TAF: LEZL 282000Z 2821/2921 VRB03KT CAVOK TX26/2915Z TN12/2907Z BECMG 2906/2908 05010KT

Weather observations and forecasts of more than 4000 airports (METAR and TAF reports).

The available stations are represented by yellow and red dots on the map.

Hover mouse over dot to see the name of the station.

Then click to see weather observations and forecasts.

To change the map : click on the green buttons with a black cross to zoom in, on the green button with a dash to zoom out, or on the green arrows for adjacent maps.


METAR-TAF: